Terminal Aerodrome Forecast
Issued by NWS

Home | Current Version | Previous Version | Text Only | Print | Product List | Glossary On
Versions: 1 2 3 4 5 6 7 8 9 10 11 12 13 14 15 16 17 18 19 20
000
FTUS43 KOAX 302326
TAFSNY
TAF
KSNY 302326Z 3100/3124 11010KT P6SM OVC100
     FM310200 11011KT P6SM BKN100
     FM310600 12012KT 6SM -RA BKN025 OVC050
     FM311100 10013KT 5SM -RA BR BKN007 OVC015
     FM311800 11012KT 2SM -RASN BR OVC007=

USA.gov is the U.S. government's official web portal to all federal, state and local government web resources and services.